Airfield :
LOGIN :

Register | Disclaimer

   EN    FR    IT 

 










Legend :    VFR   Marginal VFR   IFR   Intensive IFR   Very Intensive IFR
Visi :
Ceiling :
>= 8 km
>= 3000ft
5 to 8 km
1000 to 3000 ft
1500m to 5 km
500 to 1000 ft
800 to 1500m
200 to 500 ft
< 800m
< 200 ft
Symbols :   Thunderstorms  Fog  Heavy snow  Heavy precipitations  Wind > 20 kt
SIGMETs :     Misc.  Thunderstorms  Icing  Turbulence  Mountain Waves  Volcanic Ashes






- Airport Elevation : 230 ft
- IATA code : VAR


LBWN - Varna

CURRENT METAR :
  • 250230Z 26006KT 240V310 CAVOK 14/10 Q1020 NOSIG

EXPIRED METARs :
  • 250200Z 27009KT CAVOK 14/11 Q1020 NOSIG
  • 250130Z 27009KT CAVOK 14/11 Q1020 NOSIG
  • 250100Z 27008KT 9999 FEW021 14/11 Q1020 NOSIG
  • 250030Z 22010KT 190V250 9999 FEW026 14/11 Q1019 NOSIG
  • 250000Z 23011KT CAVOK 14/10 Q1019 NOSIG

TAF TAF LBWN
Valid from the 25 at 00:00 until the 26 at 00:00 UTC


242300Z 2500/2524 28010KT 9999 SCT040
TEMPO 2515/2518 5000 SHRA SCT030CB BKN040
BECMG 2518/2520 VRB04KT



MET'MAP, your aeronautical weather chart ! - Copyright ORBIFLY December 2007 - Disclaimer

ORBIFLY MET'MAP TEAM :

Programming & Development : Alexandra Zaïnal
Concept & original design : Baudouin d'Aumeries
Assistance for programming : Marc-Olivier Méhu
Technical & hardware support : Manuel Goepfert

Contact : metmap@orbifly.com




SOURCES & CREDITS :

   NOAA